createdAt,value
2022-10-13T00:04:34.712Z,7.45
2022-10-13T00:09:38.709Z,7.45
2022-10-13T00:14:41.573Z,7.85
2022-10-13T00:19:44.268Z,6.47
2022-10-13T00:24:53.268Z,6.63
2022-10-13T00:29:56.798Z,8.63
2022-10-13T00:34:59.517Z,6.90
2022-10-13T00:40:04.266Z,6.63
2022-10-13T00:45:09.122Z,7.65
2022-10-13T00:50:17.704Z,6.35
2022-10-13T00:55:26.264Z,7.95
2022-10-13T01:00:30.099Z,8.38
2022-10-13T01:05:32.849Z,6.47
2022-10-13T01:10:48.327Z,6.60
2022-10-13T01:15:55.799Z,6.97
2022-10-13T01:21:12.852Z,6.72
2022-10-13T01:26:51.445Z,6.43
2022-10-13T01:32:52.380Z,7.65
2022-10-13T01:38:01.613Z,6.63
2022-10-13T01:43:08.800Z,6.25
2022-10-13T01:48:12.088Z,7.35
2022-10-13T01:53:19.334Z,8.88
2022-10-13T01:58:30.504Z,7.00
2022-10-13T02:03:39.872Z,7.95
2022-10-13T02:08:47.090Z,6.57
2022-10-13T02:13:54.111Z,7.10
2022-10-13T02:18:58.361Z,9.43
2022-10-13T02:24:02.931Z,7.70
2022-10-13T02:29:08.816Z,6.45
2022-10-13T02:34:11.761Z,8.20
2022-10-13T02:39:15.765Z,6.57
2022-10-13T02:44:18.423Z,7.53
2022-10-13T02:49:21.068Z,7.75
2022-10-13T02:54:25.076Z,9.15
2022-10-13T02:59:27.876Z,7.97
2022-10-13T03:04:30.490Z,8.48
2022-10-13T03:09:36.484Z,7.30
2022-10-13T03:14:40.197Z,8.02
2022-10-13T03:19:42.966Z,7.38
2022-10-13T03:24:49.567Z,7.30
2022-10-13T03:29:52.259Z,7.47
2022-10-13T03:34:54.841Z,8.63
2022-10-13T03:39:58.805Z,7.78
2022-10-13T03:45:01.438Z,7.88
2022-10-13T03:50:05.147Z,6.57
2022-10-13T03:55:09.465Z,7.95
2022-10-13T04:00:13.649Z,7.53
2022-10-13T04:05:16.646Z,6.40
2022-10-13T04:10:20.925Z,7.30
2022-10-13T04:15:25.317Z,9.65
2022-10-13T04:20:28.147Z,11.98
2022-10-13T04:25:32.486Z,13.77
2022-10-13T04:30:35.695Z,19.63
2022-10-13T04:35:41.210Z,18.33
2022-10-13T04:40:45.158Z,12.02
2022-10-13T04:45:47.764Z,17.02
2022-10-13T04:50:59.878Z,12.63
2022-10-13T04:56:05.395Z,13.25
2022-10-13T05:01:09.479Z,12.25
2022-10-13T05:06:15.984Z,11.40
2022-10-13T05:11:21.489Z,13.38
2022-10-13T05:16:25.043Z,9.77
2022-10-13T05:21:29.179Z,11.88
2022-10-13T05:26:33.615Z,9.70
2022-10-13T05:31:36.990Z,11.15
2022-10-13T05:36:39.727Z,10.52
2022-10-13T05:41:43.682Z,11.32
2022-10-13T05:46:49.734Z,9.57
2022-10-13T05:51:54.707Z,9.77
2022-10-13T05:57:03.847Z,8.10
2022-10-13T06:02:09.187Z,10.60
2022-10-13T06:07:12.552Z,7.30
2022-10-13T06:12:17.373Z,9.27
2022-10-13T06:17:20.312Z,7.55
2022-10-13T06:22:23.251Z,9.90
2022-10-13T06:27:27.300Z,7.15
2022-10-13T06:32:30.567Z,8.75
2022-10-13T06:37:33.178Z,8.05
2022-10-13T06:42:38.115Z,7.78
2022-10-13T06:47:44.826Z,9.50
2022-10-13T06:52:47.723Z,8.27
2022-10-13T06:57:51.695Z,7.32
2022-10-13T07:02:54.345Z,6.60
2022-10-13T07:07:56.993Z,8.52
2022-10-13T07:13:01.004Z,6.93
2022-10-13T07:18:03.789Z,7.40
2022-10-13T07:23:07.415Z,7.80
2022-10-13T07:28:11.429Z,7.72
2022-10-13T07:33:14.109Z,8.88
2022-10-13T07:38:16.714Z,6.45
2022-10-13T07:43:25.265Z,9.02
2022-10-13T07:48:28.416Z,8.52
2022-10-13T07:53:35.185Z,7.30
2022-10-13T07:58:40.310Z,6.13
2022-10-13T08:03:47.150Z,6.53
2022-10-13T08:08:54.265Z,6.40
2022-10-13T08:14:00.906Z,7.10
2022-10-13T08:19:03.539Z,6.88
2022-10-13T08:24:06.934Z,8.45
2022-10-13T08:29:26.981Z,6.80
2022-10-13T08:34:29.654Z,6.82
2022-10-13T08:39:32.660Z,6.63
2022-10-13T08:50:06.360Z,6.15
2022-10-13T08:55:22.552Z,6.55
2022-10-13T09:00:26.572Z,5.22
2022-10-13T09:05:42.431Z,6.63
2022-10-13T09:10:49.770Z,6.72
2022-10-13T09:15:56.427Z,8.52
2022-10-13T09:21:15.797Z,6.97
2022-10-13T09:26:23.203Z,6.18
2022-10-13T09:31:28.808Z,8.02
2022-10-13T09:36:31.780Z,8.13
2022-10-13T09:41:35.107Z,6.07
2022-10-13T09:46:41.308Z,8.68
2022-10-13T09:51:45.815Z,14.40
2022-10-13T09:56:57.585Z,7.43
2022-10-13T10:02:03.241Z,5.88
2022-10-13T10:07:11.772Z,7.68
2022-10-13T10:12:17.557Z,7.05
2022-10-13T10:17:29.798Z,7.82
2022-10-13T10:22:38.835Z,7.80
2022-10-13T10:27:44.684Z,8.25
2022-10-13T10:32:53.997Z,9.10
2022-10-13T10:38:12.143Z,4.68
2022-10-13T10:43:27.674Z,8.45
2022-10-13T10:48:34.722Z,5.72
2022-10-13T10:53:41.121Z,5.22
2022-10-13T10:58:50.968Z,7.43
2022-10-13T11:03:59.322Z,7.78
2022-10-13T11:09:01.956Z,5.72
2022-10-13T11:14:24.565Z,7.53
2022-10-13T11:19:32.878Z,5.90
2022-10-13T11:24:47.083Z,6.40
2022-10-13T11:29:55.580Z,8.40
2022-10-13T11:35:00.859Z,7.95
2022-10-13T11:40:17.179Z,7.45
2022-10-13T11:45:29.961Z,4.50
2022-10-13T11:50:38.836Z,7.85
2022-10-13T11:55:48.900Z,5.13
2022-10-13T12:00:53.630Z,5.15
2022-10-13T12:06:00.690Z,5.25
2022-10-13T12:11:04.609Z,5.28
2022-10-13T12:16:08.448Z,5.68
2022-10-13T12:21:16.189Z,7.22
2022-10-13T12:26:20.808Z,7.20
2022-10-13T12:31:24.882Z,4.75
2022-10-13T12:36:31.083Z,6.43
2022-10-13T12:41:36.075Z,6.38
2022-10-13T12:46:40.406Z,6.63
2022-10-13T12:51:45.152Z,4.85
2022-10-13T12:56:48.760Z,5.57
2022-10-13T13:01:55.709Z,7.50
2022-10-13T13:07:01.261Z,3.95
2022-10-13T13:12:20.380Z,4.63
2022-10-13T13:22:53.588Z,6.57
2022-10-13T13:27:56.201Z,5.15
2022-10-13T13:32:58.902Z,4.80
2022-10-13T13:38:02.984Z,5.95
2022-10-13T13:43:05.585Z,5.22
2022-10-13T13:48:08.429Z,4.03
2022-10-13T13:53:12.416Z,4.88
2022-10-13T13:58:15.193Z,5.03
2022-10-13T14:03:19.533Z,6.90
2022-10-13T14:08:23.716Z,6.05
2022-10-13T14:13:26.965Z,5.00
2022-10-13T14:18:30.577Z,7.53
2022-10-13T14:23:34.553Z,17.88
2022-10-13T14:28:37.231Z,21.85
2022-10-13T14:33:39.911Z,15.50
2022-10-13T14:38:43.843Z,17.85
2022-10-13T14:43:47.049Z,15.13
2022-10-13T14:48:49.936Z,18.63
2022-10-13T14:53:53.988Z,18.67
2022-10-13T14:58:58.425Z,13.57
2022-10-13T15:04:05.655Z,13.20
2022-10-13T15:09:12.217Z,12.68
2022-10-13T15:14:14.856Z,9.48
2022-10-13T15:19:17.439Z,9.73
2022-10-13T15:24:21.538Z,12.40
2022-10-13T15:29:28.124Z,7.78
2022-10-13T15:34:30.761Z,8.07
2022-10-13T15:39:34.767Z,11.65
2022-10-13T15:45:04.667Z,6.10
2022-10-13T15:50:00.082Z,11.48
2022-10-13T15:55:10.403Z,14.27
2022-10-13T16:00:14.500Z,9.48
2022-10-13T16:05:17.250Z,9.32
2022-10-13T16:10:21.231Z,8.63
2022-10-13T16:15:24.005Z,7.68
2022-10-13T16:20:26.811Z,7.80
2022-10-13T16:25:31.918Z,8.90
2022-10-13T16:30:37.019Z,9.90
2022-10-13T16:35:39.759Z,7.28
2022-10-13T16:40:44.027Z,9.90
2022-10-13T16:45:59.903Z,5.93
2022-10-13T16:51:06.282Z,8.70
2022-10-13T16:56:10.632Z,8.27
2022-10-13T17:01:13.604Z,7.80
2022-10-13T17:06:16.654Z,6.07
2022-10-13T17:11:22.560Z,7.72
2022-10-13T17:16:25.732Z,8.43
2022-10-13T17:21:28.477Z,19.95
2022-10-13T17:26:32.478Z,6.03
2022-10-13T17:31:35.240Z,13.32
2022-10-13T17:36:38.026Z,10.93
2022-10-13T17:41:48.154Z,6.63
2022-10-13T17:46:50.866Z,11.88
2022-10-13T17:51:54.885Z,8.18
2022-10-13T17:56:58.969Z,7.38
2022-10-13T18:02:01.648Z,7.32
2022-10-13T18:07:04.398Z,5.90
2022-10-13T18:12:09.846Z,7.75
2022-10-13T18:17:12.511Z,7.80
2022-10-13T18:22:15.196Z,10.88
2022-10-13T18:27:19.681Z,5.85
2022-10-13T18:32:23.059Z,16.20
2022-10-13T18:37:25.640Z,84.40
2022-10-13T18:42:29.686Z,125.32
2022-10-13T18:47:32.345Z,112.65
2022-10-13T18:52:34.980Z,103.13
2022-10-13T18:57:39.086Z,104.28
2022-10-13T19:02:41.651Z,104.57
2022-10-13T19:07:44.269Z,79.63
2022-10-13T19:12:48.220Z,73.80
2022-10-13T19:17:50.879Z,76.18
2022-10-13T19:22:54.124Z,64.88
2022-10-13T19:27:58.127Z,67.53
2022-10-13T19:33:01.191Z,71.78
2022-10-13T19:38:03.804Z,67.45
2022-10-13T19:43:08.002Z,60.95
2022-10-13T19:48:10.829Z,46.72
2022-10-13T19:53:14.008Z,46.42
2022-10-13T19:58:18.332Z,46.85
2022-10-13T20:03:21.093Z,45.10
2022-10-13T20:08:26.708Z,49.75
2022-10-13T20:13:30.742Z,42.28
2022-10-13T20:24:58.175Z,35.47
2022-10-13T20:30:02.178Z,36.35
2022-10-13T20:35:05.925Z,41.22
2022-10-13T20:40:09.393Z,37.75
2022-10-13T20:45:13.412Z,45.22
2022-10-13T20:50:16.150Z,39.15
2022-10-13T20:55:19.006Z,34.20
2022-10-13T21:00:22.952Z,32.55
2022-10-13T21:05:25.615Z,41.80
2022-10-13T21:10:28.256Z,31.25
2022-10-13T21:15:32.311Z,39.75
2022-10-13T21:20:35.551Z,34.33
2022-10-13T21:25:38.912Z,32.35
2022-10-13T21:30:42.873Z,37.97
2022-10-13T21:35:45.485Z,28.13
2022-10-13T21:40:52.974Z,32.70
2022-10-13T21:45:57.872Z,28.92
2022-10-13T21:51:00.469Z,22.38
2022-10-13T21:56:06.701Z,26.65
2022-10-13T22:01:10.915Z,23.45
2022-10-13T22:06:18.721Z,21.60
2022-10-13T22:11:22.687Z,23.27
2022-10-13T22:16:28.615Z,26.98
2022-10-13T22:21:33.521Z,22.88
2022-10-13T22:26:38.352Z,23.23
2022-10-13T22:31:42.312Z,18.50
2022-10-13T22:36:45.632Z,18.17
2022-10-13T22:41:48.302Z,21.40
2022-10-13T22:46:52.532Z,15.10
2022-10-13T22:51:55.276Z,17.20
2022-10-13T22:56:58.005Z,16.30
2022-10-13T23:02:01.948Z,16.90
2022-10-13T23:07:04.629Z,14.00
2022-10-13T23:12:07.420Z,16.92
2022-10-13T23:17:11.641Z,18.17
2022-10-13T23:22:14.326Z,11.93
2022-10-13T23:27:17.820Z,16.60
2022-10-13T23:32:21.791Z,14.77
2022-10-13T23:37:24.463Z,11.77
2022-10-13T23:42:27.125Z,12.45
2022-10-13T23:47:31.094Z,13.02
2022-10-13T23:52:33.894Z,10.88
2022-10-13T23:57:36.487Z,12.98
